CEB2892 RPVM-RPLL
Flight info
| Callsign | CEB2892 |
|---|---|
| Flight time | 0h 57m |
| Altitude | 23000 |
| Route | MOLOC SAGRA CONDE |
| Aircraft | A320/M-V/N |
Departure
| Time | 2026-05-05 05:43 |
|---|---|
| Airport | Mactan Cebu International Airport (RPVM) |
Arrival
| Time | 2026-05-05 06:41 |
|---|---|
| Airport | Ninoy Aquino International Airport (RPLL) |
| Time | Latitude | Longitude | Altitude | Speed | Heading |
|---|---|---|---|---|---|
| 2026-05-05 05:15 | 10.31639 | 123.98067 | 35 ft | 0 kts | 315° |
| 2026-05-05 05:28 | 10.31626 | 123.98080 | 36 ft | 3 kts | 315° |
| 2026-05-05 05:29 | 10.31607 | 123.98099 | 36 ft | 3 kts | 315° |
| 2026-05-05 05:29 | 10.31589 | 123.98118 | 36 ft | 3 kts | 315° |
| 2026-05-05 05:29 | 10.31570 | 123.98137 | 36 ft | 3 kts | 309° |
| 2026-05-05 05:29 | 10.31566 | 123.98161 | 36 ft | 3 kts | 253° |
| 2026-05-05 05:30 | 10.31575 | 123.98174 | 36 ft | 0 kts | 221° |
| 2026-05-05 05:33 | 10.31574 | 123.98173 | 35 ft | 0 kts | 221° |
| 2026-05-05 05:33 | 10.31568 | 123.98168 | 35 ft | 0 kts | 209° |
| 2026-05-05 05:34 | 10.31565 | 123.98167 | 35 ft | 0 kts | 198° |
| 2026-05-05 05:34 | 10.31558 | 123.98167 | 35 ft | 1 kts | 184° |
| 2026-05-05 05:34 | 10.31546 | 123.98172 | 35 ft | 3 kts | 148° |
| 2026-05-05 05:34 | 10.31515 | 123.98201 | 35 ft | 8 kts | 135° |
| 2026-05-05 05:35 | 10.31450 | 123.98221 | 35 ft | 12 kts | 202° |
| 2026-05-05 05:35 | 10.31376 | 123.98160 | 35 ft | 14 kts | 223° |
| 2026-05-05 05:35 | 10.31304 | 123.98090 | 35 ft | 14 kts | 223° |
| 2026-05-05 05:35 | 10.31231 | 123.98020 | 35 ft | 14 kts | 223° |
| 2026-05-05 05:36 | 10.31162 | 123.97948 | 35 ft | 14 kts | 226° |
| 2026-05-05 05:36 | 10.31095 | 123.97876 | 35 ft | 14 kts | 226° |
| 2026-05-05 05:36 | 10.31029 | 123.97808 | 35 ft | 14 kts | 225° |
| 2026-05-05 05:36 | 10.30967 | 123.97744 | 35 ft | 14 kts | 225° |
| 2026-05-05 05:37 | 10.30890 | 123.97667 | 35 ft | 14 kts | 224° |
| 2026-05-05 05:37 | 10.30821 | 123.97598 | 35 ft | 14 kts | 224° |
| 2026-05-05 05:37 | 10.30751 | 123.97527 | 35 ft | 14 kts | 224° |
| 2026-05-05 05:37 | 10.30681 | 123.97458 | 35 ft | 14 kts | 224° |
| 2026-05-05 05:38 | 10.30617 | 123.97394 | 35 ft | 14 kts | 224° |
| 2026-05-05 05:38 | 10.30545 | 123.97321 | 35 ft | 14 kts | 224° |
| 2026-05-05 05:38 | 10.30474 | 123.97251 | 35 ft | 14 kts | 224° |
| 2026-05-05 05:38 | 10.30405 | 123.97182 | 35 ft | 14 kts | 224° |
| 2026-05-05 05:39 | 10.30336 | 123.97112 | 35 ft | 14 kts | 224° |
| 2026-05-05 05:39 | 10.30267 | 123.97044 | 35 ft | 14 kts | 224° |
| 2026-05-05 05:39 | 10.30197 | 123.96973 | 35 ft | 14 kts | 224° |
| 2026-05-05 05:39 | 10.30128 | 123.96905 | 35 ft | 14 kts | 224° |
| 2026-05-05 05:40 | 10.30061 | 123.96838 | 35 ft | 14 kts | 224° |
| 2026-05-05 05:40 | 10.29990 | 123.96767 | 35 ft | 14 kts | 224° |
| 2026-05-05 05:40 | 10.29915 | 123.96705 | 35 ft | 13 kts | 193° |
| 2026-05-05 05:40 | 10.29836 | 123.96751 | 35 ft | 13 kts | 135° |
| 2026-05-05 05:41 | 10.29768 | 123.96820 | 35 ft | 13 kts | 135° |
| 2026-05-05 05:41 | 10.29721 | 123.96899 | 35 ft | 13 kts | 78° |
| 2026-05-05 05:41 | 10.29784 | 123.96968 | 35 ft | 13 kts | 44° |
| 2026-05-05 05:41 | 10.29817 | 123.97002 | 35 ft | 0 kts | 45° |
| 2026-05-05 05:42 | 10.29838 | 123.97022 | 35 ft | 24 kts | 45° |
| 2026-05-05 05:42 | 10.30139 | 123.97326 | 36 ft | 94 kts | 45° |
| 2026-05-05 05:42 | 10.30749 | 123.97942 | 36 ft | 151 kts | 44° |
| 2026-05-05 05:42 | 10.31617 | 123.98795 | 58 ft | 193 kts | 42° |
| 2026-05-05 05:43 | 10.32636 | 123.99741 | 608 ft | 197 kts | 44° |
| 2026-05-05 05:43 | 10.33590 | 124.00693 | 1260 ft | 198 kts | 45° |
| 2026-05-05 05:43 | 10.34600 | 124.01717 | 1723 ft | 211 kts | 45° |
| 2026-05-05 05:43 | 10.35687 | 124.02791 | 2323 ft | 216 kts | 38° |
| 2026-05-05 05:44 | 10.37046 | 124.03384 | 2871 ft | 222 kts | 360° |
| 2026-05-05 05:44 | 10.38546 | 124.03034 | 3506 ft | 224 kts | 337° |
| 2026-05-05 05:44 | 10.39972 | 124.02406 | 4163 ft | 226 kts | 336° |
| 2026-05-05 05:44 | 10.41431 | 124.01769 | 4824 ft | 229 kts | 337° |
| 2026-05-05 05:45 | 10.42915 | 124.01148 | 5500 ft | 231 kts | 338° |
| 2026-05-05 05:45 | 10.44405 | 124.00543 | 6170 ft | 234 kts | 338° |
| 2026-05-05 05:45 | 10.45938 | 123.99933 | 6848 ft | 236 kts | 339° |
| 2026-05-05 05:45 | 10.47464 | 123.99332 | 7513 ft | 239 kts | 339° |
| 2026-05-05 05:46 | 10.49037 | 123.98715 | 8187 ft | 241 kts | 339° |
| 2026-05-05 05:46 | 10.50622 | 123.98096 | 8855 ft | 244 kts | 339° |
| 2026-05-05 05:46 | 10.52218 | 123.97473 | 9516 ft | 246 kts | 339° |
| 2026-05-05 05:46 | 10.53836 | 123.96842 | 10168 ft | 249 kts | 339° |
| 2026-05-05 05:47 | 10.55448 | 123.96214 | 10799 ft | 251 kts | 339° |
| 2026-05-05 05:47 | 10.57067 | 123.95582 | 11418 ft | 254 kts | 339° |
| 2026-05-05 05:47 | 10.58718 | 123.94938 | 12038 ft | 257 kts | 339° |
| 2026-05-05 05:47 | 10.60385 | 123.94289 | 12653 ft | 259 kts | 339° |
| 2026-05-05 05:48 | 10.62067 | 123.93632 | 13263 ft | 262 kts | 339° |
| 2026-05-05 05:48 | 10.63763 | 123.92957 | 13867 ft | 265 kts | 335° |
| 2026-05-05 05:48 | 10.65334 | 123.92001 | 14453 ft | 267 kts | 321° |
| 2026-05-05 05:48 | 10.66677 | 123.90673 | 15052 ft | 270 kts | 311° |
| 2026-05-05 05:49 | 10.67915 | 123.89211 | 15644 ft | 272 kts | 310° |
| 2026-05-05 05:49 | 10.69134 | 123.87737 | 16218 ft | 275 kts | 310° |
| 2026-05-05 05:49 | 10.70363 | 123.86260 | 16786 ft | 278 kts | 310° |
| 2026-05-05 05:49 | 10.71619 | 123.84762 | 17352 ft | 281 kts | 310° |
| 2026-05-05 05:50 | 10.72894 | 123.83248 | 17912 ft | 283 kts | 310° |
| 2026-05-05 05:50 | 10.74175 | 123.81733 | 18460 ft | 286 kts | 310° |
| 2026-05-05 05:50 | 10.75479 | 123.80192 | 19007 ft | 289 kts | 310° |
| 2026-05-05 05:50 | 10.76782 | 123.78653 | 19546 ft | 291 kts | 310° |
| 2026-05-05 05:51 | 10.78111 | 123.77083 | 20087 ft | 294 kts | 310° |
| 2026-05-05 05:51 | 10.79435 | 123.75518 | 20616 ft | 296 kts | 310° |
| 2026-05-05 05:51 | 10.80777 | 123.73933 | 21139 ft | 298 kts | 310° |
| 2026-05-05 05:51 | 10.82140 | 123.72322 | 21660 ft | 301 kts | 310° |
| 2026-05-05 05:52 | 10.83501 | 123.70715 | 22169 ft | 303 kts | 310° |
| 2026-05-05 05:52 | 10.84881 | 123.69083 | 22673 ft | 306 kts | 310° |
| 2026-05-05 05:52 | 10.86266 | 123.67445 | 23169 ft | 308 kts | 310° |
| 2026-05-05 05:52 | 10.87679 | 123.65775 | 23660 ft | 311 kts | 310° |
| 2026-05-05 05:53 | 10.89096 | 123.64101 | 24138 ft | 312 kts | 310° |
| 2026-05-05 05:53 | 10.90513 | 123.62424 | 24489 ft | 315 kts | 310° |
| 2026-05-05 05:53 | 10.91953 | 123.60721 | 24891 ft | 319 kts | 310° |
| 2026-05-05 05:53 | 10.93394 | 123.59016 | 25356 ft | 321 kts | 310° |
| 2026-05-05 05:54 | 10.94868 | 123.57272 | 25803 ft | 324 kts | 310° |
| 2026-05-05 05:54 | 10.96334 | 123.55537 | 26188 ft | 327 kts | 310° |
| 2026-05-05 05:54 | 10.97826 | 123.53770 | 26562 ft | 331 kts | 310° |
| 2026-05-05 05:54 | 10.99374 | 123.52032 | 26908 ft | 333 kts | 315° |
| 2026-05-05 05:55 | 11.01097 | 123.50398 | 26757 ft | 343 kts | 320° |
| 2026-05-05 05:55 | 11.03014 | 123.48906 | 26361 ft | 350 kts | 325° |
| 2026-05-05 05:55 | 11.05050 | 123.47476 | 25545 ft | 362 kts | 326° |
| 2026-05-05 05:55 | 11.07151 | 123.46026 | 24539 ft | 377 kts | 326° |
| 2026-05-05 05:56 | 11.09342 | 123.44512 | 23818 ft | 382 kts | 326° |
| 2026-05-05 05:56 | 11.11602 | 123.42947 | 23589 ft | 401 kts | 326° |
| 2026-05-05 05:56 | 11.13956 | 123.41320 | 23334 ft | 405 kts | 326° |
| 2026-05-05 05:56 | 11.16286 | 123.39705 | 23083 ft | 405 kts | 326° |
| 2026-05-05 05:57 | 11.18624 | 123.38078 | 22831 ft | 404 kts | 326° |
| 2026-05-05 05:57 | 11.20918 | 123.36480 | 22583 ft | 402 kts | 326° |
| 2026-05-05 05:57 | 11.23226 | 123.34869 | 22329 ft | 400 kts | 325° |
| 2026-05-05 05:57 | 11.25492 | 123.33276 | 22080 ft | 399 kts | 325° |
| 2026-05-05 05:58 | 11.27776 | 123.31665 | 21828 ft | 398 kts | 325° |
| 2026-05-05 05:58 | 11.30044 | 123.30068 | 21702 ft | 396 kts | 325° |
| 2026-05-05 05:58 | 11.32329 | 123.28463 | 21807 ft | 403 kts | 325° |
| 2026-05-05 05:58 | 11.34608 | 123.26865 | 22344 ft | 404 kts | 325° |
| 2026-05-05 05:59 | 11.36934 | 123.25234 | 22708 ft | 405 kts | 325° |
| 2026-05-05 05:59 | 11.39257 | 123.23605 | 22794 ft | 405 kts | 325° |
| 2026-05-05 05:59 | 11.41555 | 123.21995 | 22803 ft | 404 kts | 325° |
| 2026-05-05 05:59 | 11.43870 | 123.20373 | 22808 ft | 404 kts | 325° |
| 2026-05-05 06:00 | 11.46207 | 123.18735 | 22810 ft | 404 kts | 325° |
| 2026-05-05 06:00 | 11.48501 | 123.17129 | 22811 ft | 404 kts | 325° |
| 2026-05-05 06:00 | 11.50822 | 123.15501 | 22811 ft | 404 kts | 325° |
| 2026-05-05 06:00 | 11.53139 | 123.13877 | 22812 ft | 404 kts | 325° |
| 2026-05-05 06:01 | 11.55428 | 123.12272 | 22812 ft | 404 kts | 325° |
| 2026-05-05 06:01 | 11.57741 | 123.10650 | 22812 ft | 404 kts | 325° |
| 2026-05-05 06:01 | 11.60075 | 123.09013 | 22812 ft | 404 kts | 325° |
| 2026-05-05 06:01 | 11.62368 | 123.07404 | 22812 ft | 404 kts | 325° |
| 2026-05-05 06:02 | 11.64688 | 123.05776 | 22812 ft | 404 kts | 325° |
| 2026-05-05 06:02 | 11.66974 | 123.04171 | 22812 ft | 404 kts | 325° |
| 2026-05-05 06:02 | 11.69285 | 123.02549 | 22812 ft | 404 kts | 325° |
| 2026-05-05 06:02 | 11.71609 | 123.00917 | 22812 ft | 404 kts | 325° |
| 2026-05-05 06:03 | 11.73931 | 122.99286 | 22812 ft | 404 kts | 325° |
| 2026-05-05 06:03 | 11.76267 | 122.97646 | 22812 ft | 404 kts | 325° |
| 2026-05-05 06:03 | 11.78571 | 122.96027 | 22812 ft | 404 kts | 325° |
| 2026-05-05 06:03 | 11.80893 | 122.94395 | 22812 ft | 404 kts | 325° |
| 2026-05-05 06:04 | 11.83242 | 122.92743 | 22812 ft | 404 kts | 325° |
| 2026-05-05 06:04 | 11.85538 | 122.91129 | 22812 ft | 404 kts | 325° |
| 2026-05-05 06:04 | 11.87877 | 122.89484 | 22812 ft | 404 kts | 325° |
| 2026-05-05 06:04 | 11.90206 | 122.87846 | 22812 ft | 404 kts | 325° |
| 2026-05-05 06:05 | 11.92549 | 122.86198 | 22812 ft | 404 kts | 325° |
| 2026-05-05 06:05 | 11.94857 | 122.84573 | 22812 ft | 404 kts | 325° |
| 2026-05-05 06:05 | 11.97208 | 122.82918 | 22812 ft | 404 kts | 325° |
| 2026-05-05 06:05 | 11.99537 | 122.81280 | 22812 ft | 404 kts | 325° |
| 2026-05-05 06:06 | 12.01835 | 122.79662 | 22812 ft | 404 kts | 325° |
| 2026-05-05 06:06 | 12.04153 | 122.78029 | 22812 ft | 404 kts | 325° |
| 2026-05-05 06:06 | 12.06450 | 122.76411 | 22812 ft | 404 kts | 325° |
| 2026-05-05 06:06 | 12.08772 | 122.74775 | 22812 ft | 404 kts | 325° |
| 2026-05-05 06:07 | 12.11093 | 122.73140 | 22812 ft | 404 kts | 326° |
| 2026-05-05 06:07 | 12.13397 | 122.71526 | 22812 ft | 404 kts | 326° |
| 2026-05-05 06:07 | 12.15602 | 122.69979 | 22812 ft | 404 kts | 326° |
| 2026-05-05 06:07 | 12.17943 | 122.68334 | 22812 ft | 404 kts | 325° |
| 2026-05-05 06:08 | 12.20252 | 122.66708 | 22812 ft | 404 kts | 325° |
| 2026-05-05 06:08 | 12.22556 | 122.65083 | 22812 ft | 404 kts | 325° |
| 2026-05-05 06:08 | 12.24880 | 122.63442 | 22812 ft | 404 kts | 325° |
| 2026-05-05 06:08 | 12.27206 | 122.61800 | 22812 ft | 404 kts | 325° |
| 2026-05-05 06:09 | 12.29513 | 122.60169 | 22812 ft | 404 kts | 325° |
| 2026-05-05 06:09 | 12.31829 | 122.58532 | 22812 ft | 404 kts | 325° |
| 2026-05-05 06:09 | 12.34125 | 122.56909 | 22812 ft | 404 kts | 325° |
| 2026-05-05 06:09 | 12.36432 | 122.55279 | 22812 ft | 404 kts | 325° |
| 2026-05-05 06:10 | 12.38762 | 122.53635 | 22812 ft | 404 kts | 326° |
| 2026-05-05 06:10 | 12.41086 | 122.51998 | 22812 ft | 404 kts | 326° |
| 2026-05-05 06:10 | 12.43374 | 122.50385 | 22812 ft | 404 kts | 325° |
| 2026-05-05 06:10 | 12.45704 | 122.48740 | 22812 ft | 404 kts | 325° |
| 2026-05-05 06:11 | 12.47999 | 122.47118 | 22812 ft | 404 kts | 325° |
| 2026-05-05 06:11 | 12.50318 | 122.45480 | 22812 ft | 404 kts | 325° |
| 2026-05-05 06:11 | 12.52629 | 122.43845 | 22812 ft | 404 kts | 325° |
| 2026-05-05 06:11 | 12.54954 | 122.42200 | 22812 ft | 404 kts | 325° |
| 2026-05-05 06:12 | 12.57262 | 122.40566 | 22812 ft | 404 kts | 325° |
| 2026-05-05 06:12 | 12.59591 | 122.38917 | 22812 ft | 404 kts | 325° |
| 2026-05-05 06:12 | 12.61885 | 122.37292 | 22812 ft | 404 kts | 325° |
| 2026-05-05 06:12 | 12.64204 | 122.35651 | 22762 ft | 405 kts | 325° |
| 2026-05-05 06:13 | 12.66512 | 122.34012 | 22423 ft | 401 kts | 325° |
| 2026-05-05 06:13 | 12.68758 | 122.32407 | 21952 ft | 397 kts | 325° |
| 2026-05-05 06:13 | 12.71030 | 122.30784 | 21417 ft | 395 kts | 325° |
| 2026-05-05 06:13 | 12.73263 | 122.29192 | 20910 ft | 392 kts | 325° |
| 2026-05-05 06:14 | 12.75499 | 122.27602 | 20412 ft | 389 kts | 325° |
| 2026-05-05 06:14 | 12.77713 | 122.26028 | 19915 ft | 387 kts | 325° |
| 2026-05-05 06:14 | 12.79920 | 122.24461 | 19418 ft | 384 kts | 325° |
| 2026-05-05 06:14 | 12.82114 | 122.22903 | 18925 ft | 381 kts | 325° |
| 2026-05-05 06:15 | 12.84268 | 122.21374 | 18650 ft | 378 kts | 325° |
| 2026-05-05 06:15 | 12.86446 | 122.19827 | 18621 ft | 379 kts | 325° |
| 2026-05-05 06:15 | 12.88618 | 122.18285 | 18616 ft | 380 kts | 325° |
| 2026-05-05 06:15 | 12.90778 | 122.16751 | 18614 ft | 380 kts | 325° |
| 2026-05-05 06:16 | 12.92989 | 122.15180 | 18613 ft | 380 kts | 325° |
| 2026-05-05 06:16 | 12.95163 | 122.13636 | 18613 ft | 380 kts | 325° |
| 2026-05-05 06:16 | 12.97329 | 122.12096 | 18613 ft | 380 kts | 325° |
| 2026-05-05 06:16 | 12.99529 | 122.10533 | 18613 ft | 380 kts | 325° |
| 2026-05-05 06:17 | 13.01695 | 122.08993 | 18613 ft | 380 kts | 325° |
| 2026-05-05 06:17 | 13.03884 | 122.07436 | 18613 ft | 380 kts | 325° |
| 2026-05-05 06:17 | 13.06051 | 122.05895 | 18613 ft | 380 kts | 325° |
| 2026-05-05 06:17 | 13.08242 | 122.04336 | 18613 ft | 380 kts | 325° |
| 2026-05-05 06:18 | 13.10409 | 122.02795 | 18613 ft | 380 kts | 325° |
| 2026-05-05 06:18 | 13.12576 | 122.01260 | 18613 ft | 380 kts | 325° |
| 2026-05-05 06:18 | 13.14768 | 121.99709 | 18613 ft | 380 kts | 325° |
| 2026-05-05 06:18 | 13.16931 | 121.98176 | 18613 ft | 380 kts | 325° |
| 2026-05-05 06:19 | 13.19134 | 121.96611 | 18613 ft | 380 kts | 325° |
| 2026-05-05 06:19 | 13.21298 | 121.95072 | 18613 ft | 380 kts | 325° |
| 2026-05-05 06:19 | 13.23461 | 121.93532 | 18613 ft | 380 kts | 325° |
| 2026-05-05 06:19 | 13.25637 | 121.91982 | 18613 ft | 380 kts | 325° |
| 2026-05-05 06:20 | 13.27821 | 121.90425 | 18613 ft | 380 kts | 325° |
| 2026-05-05 06:20 | 13.29971 | 121.88892 | 18613 ft | 380 kts | 325° |
| 2026-05-05 06:20 | 13.32150 | 121.87339 | 18613 ft | 380 kts | 325° |
| 2026-05-05 06:20 | 13.34339 | 121.85777 | 18613 ft | 380 kts | 325° |
| 2026-05-05 06:21 | 13.36493 | 121.84241 | 18613 ft | 380 kts | 325° |
| 2026-05-05 06:21 | 13.38684 | 121.82677 | 18613 ft | 380 kts | 325° |
| 2026-05-05 06:21 | 13.40866 | 121.81119 | 18613 ft | 380 kts | 325° |
| 2026-05-05 06:21 | 13.43024 | 121.79578 | 18613 ft | 380 kts | 325° |
| 2026-05-05 06:22 | 13.45205 | 121.78020 | 18613 ft | 380 kts | 325° |
| 2026-05-05 06:22 | 13.47365 | 121.76477 | 18613 ft | 380 kts | 325° |
| 2026-05-05 06:22 | 13.49539 | 121.74923 | 18613 ft | 380 kts | 325° |
| 2026-05-05 06:22 | 13.51719 | 121.73365 | 18613 ft | 380 kts | 325° |
| 2026-05-05 06:23 | 13.53894 | 121.71809 | 18613 ft | 380 kts | 325° |
| 2026-05-05 06:23 | 13.56066 | 121.70255 | 18613 ft | 380 kts | 325° |
| 2026-05-05 06:23 | 13.58219 | 121.68715 | 18613 ft | 380 kts | 325° |
| 2026-05-05 06:23 | 13.60398 | 121.67155 | 18613 ft | 380 kts | 325° |
| 2026-05-05 06:24 | 13.62572 | 121.65599 | 18613 ft | 380 kts | 325° |
| 2026-05-05 06:24 | 13.64717 | 121.64063 | 18613 ft | 380 kts | 325° |
| 2026-05-05 06:24 | 13.66884 | 121.62457 | 18612 ft | 380 kts | 322° |
| 2026-05-05 06:24 | 13.68890 | 121.60681 | 18613 ft | 380 kts | 316° |
| 2026-05-05 06:25 | 13.70717 | 121.58713 | 18613 ft | 380 kts | 311° |
| 2026-05-05 06:25 | 13.72411 | 121.56657 | 18613 ft | 380 kts | 310° |
| 2026-05-05 06:25 | 13.74098 | 121.54563 | 18553 ft | 376 kts | 310° |
| 2026-05-05 06:25 | 13.75748 | 121.52514 | 18125 ft | 374 kts | 310° |
| 2026-05-05 06:26 | 13.77431 | 121.50431 | 17547 ft | 373 kts | 310° |
| 2026-05-05 06:26 | 13.79096 | 121.48378 | 17044 ft | 371 kts | 310° |
| 2026-05-05 06:26 | 13.80752 | 121.46339 | 16564 ft | 368 kts | 310° |
| 2026-05-05 06:26 | 13.82406 | 121.44304 | 16077 ft | 366 kts | 310° |
| 2026-05-05 06:27 | 13.84032 | 121.42303 | 15595 ft | 363 kts | 310° |
| 2026-05-05 06:27 | 13.87275 | 121.38312 | 14629 ft | 358 kts | 310° |
| 2026-05-05 06:27 | 13.88859 | 121.36359 | 14155 ft | 356 kts | 310° |
| 2026-05-05 06:28 | 13.90458 | 121.34387 | 13675 ft | 354 kts | 309° |
| 2026-05-05 06:28 | 13.92013 | 121.32458 | 13206 ft | 351 kts | 309° |
| 2026-05-05 06:28 | 13.93585 | 121.30508 | 12731 ft | 349 kts | 309° |
| 2026-05-05 06:28 | 13.95112 | 121.28616 | 12268 ft | 347 kts | 309° |
| 2026-05-05 06:29 | 13.96667 | 121.26695 | 11796 ft | 344 kts | 310° |
| 2026-05-05 06:29 | 13.98186 | 121.24818 | 11333 ft | 342 kts | 310° |
| 2026-05-05 06:29 | 13.99722 | 121.22922 | 10878 ft | 339 kts | 310° |
| 2026-05-05 06:29 | 14.01215 | 121.21079 | 10674 ft | 329 kts | 310° |
| 2026-05-05 06:30 | 14.02668 | 121.19284 | 10483 ft | 318 kts | 310° |
| 2026-05-05 06:30 | 14.04064 | 121.17560 | 10299 ft | 309 kts | 310° |
| 2026-05-05 06:30 | 14.05426 | 121.15875 | 10117 ft | 299 kts | 310° |
| 2026-05-05 06:30 | 14.06743 | 121.14248 | 9831 ft | 294 kts | 310° |
| 2026-05-05 06:31 | 14.08063 | 121.12614 | 9444 ft | 293 kts | 310° |
| 2026-05-05 06:31 | 14.09370 | 121.10998 | 9061 ft | 292 kts | 310° |
| 2026-05-05 06:31 | 14.10666 | 121.09399 | 8685 ft | 290 kts | 310° |
| 2026-05-05 06:31 | 14.11971 | 121.07799 | 8306 ft | 288 kts | 310° |
| 2026-05-05 06:32 | 14.13261 | 121.06215 | 7929 ft | 287 kts | 310° |
| 2026-05-05 06:32 | 14.14544 | 121.04635 | 7553 ft | 285 kts | 310° |
| 2026-05-05 06:32 | 14.15819 | 121.03062 | 7176 ft | 284 kts | 310° |
| 2026-05-05 06:32 | 14.17071 | 121.01513 | 6804 ft | 282 kts | 310° |
| 2026-05-05 06:33 | 14.18337 | 120.99945 | 6427 ft | 281 kts | 310° |
| 2026-05-05 06:33 | 14.19577 | 120.98408 | 6057 ft | 279 kts | 310° |
| 2026-05-05 06:33 | 14.20835 | 120.96849 | 5681 ft | 278 kts | 310° |
| 2026-05-05 06:33 | 14.22070 | 120.95318 | 5312 ft | 276 kts | 310° |
| 2026-05-05 06:34 | 14.23302 | 120.93790 | 4944 ft | 275 kts | 310° |
| 2026-05-05 06:34 | 14.24530 | 120.92268 | 4603 ft | 272 kts | 310° |
| 2026-05-05 06:34 | 14.25710 | 120.90803 | 4440 ft | 263 kts | 310° |
| 2026-05-05 06:34 | 14.26868 | 120.89377 | 4271 ft | 254 kts | 312° |
| 2026-05-05 06:35 | 14.28234 | 120.88282 | 4086 ft | 246 kts | 336° |
| 2026-05-05 06:35 | 14.29843 | 120.87656 | 3929 ft | 238 kts | 342° |
| 2026-05-05 06:35 | 14.31422 | 120.87136 | 3716 ft | 232 kts | 342° |
| 2026-05-05 06:35 | 14.32973 | 120.86629 | 3418 ft | 231 kts | 342° |
| 2026-05-05 06:36 | 14.34504 | 120.86118 | 3119 ft | 231 kts | 342° |
| 2026-05-05 06:36 | 14.36048 | 120.85595 | 2821 ft | 230 kts | 342° |
| 2026-05-05 06:36 | 14.37565 | 120.85077 | 2528 ft | 229 kts | 341° |
| 2026-05-05 06:36 | 14.39080 | 120.84560 | 2235 ft | 228 kts | 344° |
| 2026-05-05 06:37 | 14.40647 | 120.84473 | 1895 ft | 227 kts | 20° |
| 2026-05-05 06:37 | 14.41868 | 120.85425 | 1835 ft | 226 kts | 57° |
| 2026-05-05 06:37 | 14.42642 | 120.86860 | 1830 ft | 227 kts | 63° |
| 2026-05-05 06:37 | 14.43377 | 120.88342 | 1822 ft | 227 kts | 63° |
| 2026-05-05 06:38 | 14.44116 | 120.89771 | 1820 ft | 226 kts | 61° |
| 2026-05-05 06:38 | 14.44895 | 120.91201 | 1808 ft | 221 kts | 60° |
| 2026-05-05 06:38 | 14.45628 | 120.92523 | 1708 ft | 208 kts | 60° |
| 2026-05-05 06:38 | 14.46314 | 120.93775 | 1824 ft | 188 kts | 60° |
| 2026-05-05 06:39 | 14.46936 | 120.94912 | 1571 ft | 179 kts | 60° |
| 2026-05-05 06:39 | 14.47549 | 120.96034 | 1209 ft | 175 kts | 60° |
| 2026-05-05 06:39 | 14.48145 | 120.97089 | 857 ft | 171 kts | 59° |
| 2026-05-05 06:39 | 14.48731 | 120.98141 | 531 ft | 162 kts | 60° |
| 2026-05-05 06:40 | 14.49281 | 120.99108 | 303 ft | 148 kts | 60° |
| 2026-05-05 06:40 | 14.49786 | 121.00011 | 165 ft | 145 kts | 60° |
| 2026-05-05 06:40 | 14.50269 | 121.00864 | 84 ft | 122 kts | 63° |
| 2026-05-05 06:40 | 14.50557 | 121.01400 | 84 ft | 53 kts | 60° |
| 2026-05-05 06:41 | 14.50718 | 121.01668 | 84 ft | 38 kts | 48° |
| 2026-05-05 06:41 | 14.50905 | 121.01830 | 84 ft | 22 kts | 38° |
| 2026-05-05 06:41 | 14.51012 | 121.01820 | 83 ft | 13 kts | 29° |
| 2026-05-05 06:41 | 14.51086 | 121.01858 | 83 ft | 12 kts | 339° |
| 2026-05-05 06:42 | 14.51153 | 121.01796 | 83 ft | 12 kts | 314° |
| 2026-05-05 06:42 | 14.51216 | 121.01730 | 84 ft | 12 kts | 315° |
| 2026-05-05 06:42 | 14.51281 | 121.01664 | 83 ft | 13 kts | 315° |
| 2026-05-05 06:42 | 14.51346 | 121.01597 | 83 ft | 13 kts | 315° |
| 2026-05-05 06:43 | 14.51429 | 121.01585 | 83 ft | 12 kts | 8° |
| 2026-05-05 06:43 | 14.51509 | 121.01562 | 84 ft | 11 kts | 9° |
| 2026-05-05 06:43 | 14.51560 | 121.01601 | 83 ft | 5 kts | 45° |
| 2026-05-05 06:43 | 14.51568 | 121.01610 | 83 ft | 0 kts | 45° |
| 2026-05-05 06:44 | 14.51572 | 121.01614 | 83 ft | 0 kts | 45° |
| 2026-05-05 06:44 | 14.51573 | 121.01614 | 83 ft | 0 kts | 45° |